SPKOL EPKK-EIDW
Flight info
| Callsign | SPKOL |
|---|---|
| Flight time | 2h 36m |
| Altitude | 38000 |
| Route | OMFOL DCT DINOV DCT NAROX DCT GOBAX DCT PIROT DCT RAVLO Y70 OTBED L60 PENIL UL28 LELDO M145 BAGSO BAGSO4L |
| Aircraft | B738/M-SDE2E3FGHIRWXY/LB1 |
Departure
| Time | 2026-05-06 18:03 |
|---|---|
| Airport | Kraków John Paul II International Airport (EPKK) |
Arrival
| Time | 2026-05-06 20:39 |
|---|---|
| Airport | Dublin Airport (EIDW) |
| Time | Latitude | Longitude | Altitude | Speed | Heading |
|---|---|---|---|---|---|
| 2026-05-06 17:46 | 50.07499 | 19.80499 | 789 ft | 0 kts | 107° |
| 2026-05-06 17:57 | 50.07503 | 19.80477 | 789 ft | 4 kts | 107° |
| 2026-05-06 17:57 | 50.07511 | 19.80439 | 789 ft | 4 kts | 103° |
| 2026-05-06 17:57 | 50.07516 | 19.80397 | 789 ft | 4 kts | 98° |
| 2026-05-06 17:57 | 50.07517 | 19.80384 | 789 ft | 0 kts | 99° |
| 2026-05-06 18:00 | 50.07518 | 19.80386 | 789 ft | 1 kts | 87° |
| 2026-05-06 18:00 | 50.07560 | 19.80419 | 789 ft | 13 kts | 12° |
| 2026-05-06 18:01 | 50.07649 | 19.80403 | 789 ft | 11 kts | 348° |
| 2026-05-06 18:01 | 50.07728 | 19.80376 | 789 ft | 11 kts | 348° |
| 2026-05-06 18:01 | 50.07804 | 19.80348 | 789 ft | 11 kts | 348° |
| 2026-05-06 18:01 | 50.07841 | 19.80336 | 789 ft | 0 kts | 347° |
| 2026-05-06 18:02 | 50.07852 | 19.80332 | 789 ft | 11 kts | 347° |
| 2026-05-06 18:02 | 50.08001 | 19.80255 | 788 ft | 24 kts | 308° |
| 2026-05-06 18:02 | 50.07965 | 19.79840 | 788 ft | 79 kts | 258° |
| 2026-05-06 18:02 | 50.07778 | 19.78518 | 804 ft | 167 kts | 257° |
| 2026-05-06 18:03 | 50.07508 | 19.76566 | 1427 ft | 203 kts | 259° |
| 2026-05-06 18:03 | 50.07187 | 19.74228 | 2036 ft | 238 kts | 256° |
| 2026-05-06 18:03 | 50.06833 | 19.71687 | 3174 ft | 236 kts | 255° |
| 2026-05-06 18:03 | 50.06486 | 19.69220 | 4231 ft | 233 kts | 253° |
| 2026-05-06 18:04 | 50.06128 | 19.66708 | 4858 ft | 247 kts | 253° |
| 2026-05-06 18:04 | 50.05747 | 19.64048 | 5699 ft | 254 kts | 253° |
| 2026-05-06 18:04 | 50.05693 | 19.61268 | 6697 ft | 268 kts | 280° |
| 2026-05-06 18:04 | 50.06389 | 19.58544 | 7686 ft | 273 kts | 288° |
| 2026-05-06 18:05 | 50.07163 | 19.55809 | 8616 ft | 279 kts | 288° |
| 2026-05-06 18:05 | 50.07953 | 19.53028 | 9573 ft | 283 kts | 289° |
| 2026-05-06 18:05 | 50.08754 | 19.50193 | 10333 ft | 293 kts | 289° |
| 2026-05-06 18:05 | 50.09601 | 19.47148 | 10574 ft | 320 kts | 289° |
| 2026-05-06 18:06 | 50.10504 | 19.43877 | 10793 ft | 346 kts | 289° |
| 2026-05-06 18:06 | 50.11471 | 19.40363 | 11318 ft | 358 kts | 289° |
| 2026-05-06 18:06 | 50.12460 | 19.36768 | 12105 ft | 363 kts | 289° |
| 2026-05-06 18:06 | 50.13456 | 19.33143 | 12962 ft | 365 kts | 289° |
| 2026-05-06 18:07 | 50.14457 | 19.29480 | 13766 ft | 369 kts | 289° |
| 2026-05-06 18:07 | 50.15465 | 19.25781 | 14501 ft | 373 kts | 289° |
| 2026-05-06 18:07 | 50.16480 | 19.22040 | 15252 ft | 376 kts | 289° |
| 2026-05-06 18:07 | 50.17500 | 19.18271 | 15991 ft | 379 kts | 289° |
| 2026-05-06 18:08 | 50.18527 | 19.14467 | 16702 ft | 382 kts | 289° |
| 2026-05-06 18:08 | 50.19549 | 19.10675 | 17431 ft | 386 kts | 289° |
| 2026-05-06 18:08 | 50.20590 | 19.06803 | 18153 ft | 388 kts | 288° |
| 2026-05-06 18:08 | 50.21639 | 19.02897 | 18756 ft | 392 kts | 288° |
| 2026-05-06 18:09 | 50.22694 | 18.98960 | 19366 ft | 395 kts | 288° |
| 2026-05-06 18:09 | 50.23755 | 18.94992 | 19982 ft | 397 kts | 288° |
| 2026-05-06 18:09 | 50.24823 | 18.90995 | 20587 ft | 400 kts | 288° |
| 2026-05-06 18:09 | 50.25897 | 18.86967 | 21167 ft | 403 kts | 288° |
| 2026-05-06 18:10 | 50.26979 | 18.82901 | 21738 ft | 406 kts | 288° |
| 2026-05-06 18:10 | 50.28068 | 18.78801 | 22234 ft | 411 kts | 288° |
| 2026-05-06 18:10 | 50.29152 | 18.74709 | 22757 ft | 414 kts | 288° |
| 2026-05-06 18:10 | 50.30258 | 18.70532 | 23321 ft | 417 kts | 288° |
| 2026-05-06 18:11 | 50.31367 | 18.66337 | 23823 ft | 418 kts | 288° |
| 2026-05-06 18:11 | 50.32480 | 18.62121 | 24286 ft | 420 kts | 288° |
| 2026-05-06 18:11 | 50.33596 | 18.57880 | 24716 ft | 423 kts | 288° |
| 2026-05-06 18:11 | 50.34716 | 18.53619 | 25137 ft | 425 kts | 288° |
| 2026-05-06 18:12 | 50.35842 | 18.49326 | 25559 ft | 427 kts | 288° |
| 2026-05-06 18:12 | 50.36971 | 18.45015 | 25968 ft | 429 kts | 288° |
| 2026-05-06 18:12 | 50.38090 | 18.40732 | 26355 ft | 431 kts | 288° |
| 2026-05-06 18:12 | 50.39226 | 18.36373 | 26738 ft | 434 kts | 287° |
| 2026-05-06 18:13 | 50.40369 | 18.31985 | 27115 ft | 436 kts | 287° |
| 2026-05-06 18:13 | 50.41515 | 18.27572 | 27489 ft | 438 kts | 287° |
| 2026-05-06 18:13 | 50.42666 | 18.23134 | 27862 ft | 440 kts | 287° |
| 2026-05-06 18:13 | 50.43819 | 18.18678 | 28211 ft | 442 kts | 287° |
| 2026-05-06 18:14 | 50.44977 | 18.14196 | 28567 ft | 444 kts | 287° |
| 2026-05-06 18:14 | 50.46138 | 18.09690 | 28904 ft | 446 kts | 287° |
| 2026-05-06 18:14 | 50.47300 | 18.05175 | 29320 ft | 446 kts | 287° |
| 2026-05-06 18:14 | 50.48444 | 18.00725 | 29850 ft | 444 kts | 287° |
| 2026-05-06 18:15 | 50.49592 | 17.96255 | 30352 ft | 440 kts | 287° |
| 2026-05-06 18:15 | 50.50726 | 17.91827 | 30893 ft | 435 kts | 287° |
| 2026-05-06 18:15 | 50.51846 | 17.87448 | 31486 ft | 429 kts | 286° |
| 2026-05-06 18:15 | 50.52949 | 17.83126 | 32065 ft | 423 kts | 286° |
| 2026-05-06 18:16 | 50.54038 | 17.78847 | 32539 ft | 420 kts | 286° |
| 2026-05-06 18:16 | 50.55117 | 17.74589 | 32956 ft | 418 kts | 285° |
| 2026-05-06 18:16 | 50.56190 | 17.70348 | 33368 ft | 416 kts | 285° |
| 2026-05-06 18:16 | 50.57254 | 17.66136 | 33833 ft | 413 kts | 285° |
| 2026-05-06 18:17 | 50.58296 | 17.62008 | 34185 ft | 411 kts | 285° |
| 2026-05-06 18:17 | 50.59351 | 17.57813 | 34348 ft | 414 kts | 285° |
| 2026-05-06 18:17 | 50.60410 | 17.53585 | 34504 ft | 417 kts | 285° |
| 2026-05-06 18:17 | 50.61474 | 17.49339 | 34766 ft | 416 kts | 285° |
| 2026-05-06 18:18 | 50.62536 | 17.45099 | 35070 ft | 417 kts | 285° |
| 2026-05-06 18:18 | 50.63600 | 17.40842 | 35259 ft | 419 kts | 285° |
| 2026-05-06 18:18 | 50.64665 | 17.36572 | 35482 ft | 419 kts | 285° |
| 2026-05-06 18:18 | 50.65731 | 17.32293 | 35735 ft | 419 kts | 285° |
| 2026-05-06 18:19 | 50.66794 | 17.28018 | 35974 ft | 419 kts | 285° |
| 2026-05-06 18:19 | 50.67842 | 17.23792 | 36184 ft | 420 kts | 285° |
| 2026-05-06 18:19 | 50.68907 | 17.19491 | 36403 ft | 421 kts | 285° |
| 2026-05-06 18:19 | 50.69971 | 17.15186 | 36634 ft | 421 kts | 285° |
| 2026-05-06 18:20 | 50.71035 | 17.10872 | 36857 ft | 422 kts | 285° |
| 2026-05-06 18:20 | 50.72098 | 17.06551 | 37036 ft | 423 kts | 285° |
| 2026-05-06 18:20 | 50.73164 | 17.02209 | 37223 ft | 425 kts | 285° |
| 2026-05-06 18:20 | 50.74233 | 16.97848 | 37403 ft | 426 kts | 285° |
| 2026-05-06 18:21 | 50.75300 | 16.93488 | 37676 ft | 425 kts | 285° |
| 2026-05-06 18:21 | 50.76353 | 16.89180 | 37764 ft | 428 kts | 285° |
| 2026-05-06 18:21 | 50.78493 | 16.80389 | 37762 ft | 428 kts | 285° |
| 2026-05-06 18:22 | 50.80616 | 16.71646 | 37772 ft | 424 kts | 285° |
| 2026-05-06 18:22 | 50.82713 | 16.62967 | 37794 ft | 422 kts | 285° |
| 2026-05-06 18:23 | 50.84796 | 16.54308 | 37781 ft | 421 kts | 285° |
| 2026-05-06 18:23 | 50.86871 | 16.45642 | 37778 ft | 421 kts | 285° |
| 2026-05-06 18:24 | 50.88931 | 16.37006 | 37783 ft | 423 kts | 285° |
| 2026-05-06 18:24 | 50.91010 | 16.28256 | 37787 ft | 426 kts | 285° |
| 2026-05-06 18:25 | 50.93094 | 16.19457 | 37801 ft | 428 kts | 285° |
| 2026-05-06 18:25 | 50.95183 | 16.10597 | 37790 ft | 430 kts | 285° |
| 2026-05-06 18:26 | 50.97261 | 16.01746 | 37789 ft | 432 kts | 285° |
| 2026-05-06 18:26 | 50.99355 | 15.92795 | 37786 ft | 433 kts | 285° |
| 2026-05-06 18:27 | 51.01444 | 15.83829 | 37780 ft | 433 kts | 285° |
| 2026-05-06 18:27 | 51.03526 | 15.74853 | 37801 ft | 434 kts | 284° |
| 2026-05-06 18:28 | 51.05603 | 15.65858 | 37790 ft | 433 kts | 284° |
| 2026-05-06 18:28 | 51.07658 | 15.56924 | 37786 ft | 433 kts | 284° |
| 2026-05-06 18:29 | 51.09715 | 15.47943 | 37779 ft | 432 kts | 284° |
| 2026-05-06 18:29 | 51.11762 | 15.38964 | 37775 ft | 431 kts | 284° |
| 2026-05-06 18:30 | 51.13799 | 15.29993 | 37787 ft | 431 kts | 284° |
| 2026-05-06 18:30 | 51.15815 | 15.21076 | 37786 ft | 431 kts | 284° |
| 2026-05-06 18:31 | 51.17840 | 15.12079 | 37781 ft | 432 kts | 284° |
| 2026-05-06 18:31 | 51.19861 | 15.03069 | 37786 ft | 432 kts | 284° |
| 2026-05-06 18:32 | 51.21614 | 14.93943 | 37782 ft | 429 kts | 279° |
| 2026-05-06 18:32 | 51.23128 | 14.84719 | 37784 ft | 431 kts | 279° |
| 2026-05-06 18:33 | 51.24627 | 14.75513 | 37779 ft | 432 kts | 279° |
| 2026-05-06 18:33 | 51.26159 | 14.66227 | 37794 ft | 433 kts | 279° |
| 2026-05-06 18:34 | 51.27703 | 14.56903 | 37778 ft | 434 kts | 279° |
| 2026-05-06 18:34 | 51.29245 | 14.47565 | 37785 ft | 435 kts | 279° |
| 2026-05-06 18:35 | 51.30780 | 14.38210 | 37779 ft | 436 kts | 279° |
| 2026-05-06 18:35 | 51.32302 | 14.28888 | 37787 ft | 436 kts | 279° |
| 2026-05-06 18:36 | 51.33827 | 14.19489 | 37782 ft | 437 kts | 279° |
| 2026-05-06 18:36 | 51.35345 | 14.10077 | 37783 ft | 437 kts | 279° |
| 2026-05-06 18:37 | 51.36858 | 14.00646 | 37781 ft | 438 kts | 279° |
| 2026-05-06 18:37 | 51.38363 | 13.91212 | 37784 ft | 438 kts | 279° |
| 2026-05-06 18:38 | 51.39850 | 13.81841 | 37785 ft | 437 kts | 279° |
| 2026-05-06 18:38 | 51.41339 | 13.72401 | 37782 ft | 437 kts | 279° |
| 2026-05-06 18:39 | 51.42818 | 13.62967 | 37786 ft | 436 kts | 279° |
| 2026-05-06 18:40 | 51.45020 | 13.48822 | 37790 ft | 436 kts | 279° |
| 2026-05-06 18:40 | 51.46469 | 13.39449 | 37781 ft | 436 kts | 279° |
| 2026-05-06 18:41 | 51.47919 | 13.30013 | 37780 ft | 436 kts | 279° |
| 2026-05-06 18:41 | 51.49361 | 13.20572 | 37783 ft | 436 kts | 279° |
| 2026-05-06 18:42 | 51.50796 | 13.11126 | 37778 ft | 435 kts | 279° |
| 2026-05-06 18:42 | 51.52222 | 13.01677 | 37783 ft | 436 kts | 279° |
| 2026-05-06 18:43 | 51.53633 | 12.92276 | 37783 ft | 436 kts | 279° |
| 2026-05-06 18:43 | 51.54398 | 12.87162 | 37783 ft | 436 kts | 279° |
| 2026-05-06 18:44 | 51.55810 | 12.77673 | 37779 ft | 437 kts | 279° |
| 2026-05-06 18:44 | 51.57270 | 12.68191 | 37779 ft | 438 kts | 280° |
| 2026-05-06 18:45 | 51.58664 | 12.59273 | 37791 ft | 438 kts | 280° |
| 2026-05-06 18:45 | 51.59894 | 12.51358 | 37791 ft | 439 kts | 280° |
| 2026-05-06 18:46 | 51.61154 | 12.43176 | 37781 ft | 439 kts | 280° |
| 2026-05-06 18:46 | 51.62614 | 12.33627 | 37781 ft | 440 kts | 279° |
| 2026-05-06 18:47 | 51.64067 | 12.24055 | 37782 ft | 440 kts | 279° |
| 2026-05-06 18:47 | 51.65503 | 12.14540 | 37828 ft | 440 kts | 279° |
| 2026-05-06 18:48 | 51.66943 | 12.04934 | 37808 ft | 441 kts | 279° |
| 2026-05-06 18:48 | 51.68377 | 11.95316 | 37797 ft | 442 kts | 279° |
| 2026-05-06 18:49 | 51.69805 | 11.85680 | 37795 ft | 442 kts | 279° |
| 2026-05-06 18:49 | 51.71225 | 11.76037 | 37800 ft | 442 kts | 279° |
| 2026-05-06 18:50 | 51.72629 | 11.66448 | 37816 ft | 442 kts | 279° |
| 2026-05-06 18:50 | 51.74034 | 11.56784 | 37808 ft | 442 kts | 279° |
| 2026-05-06 18:51 | 51.75431 | 11.47118 | 37803 ft | 442 kts | 279° |
| 2026-05-06 18:51 | 51.76820 | 11.37455 | 37798 ft | 442 kts | 279° |
| 2026-05-06 18:52 | 51.78199 | 11.27789 | 37803 ft | 441 kts | 279° |
| 2026-05-06 18:52 | 51.79569 | 11.18133 | 37813 ft | 441 kts | 279° |
| 2026-05-06 18:53 | 51.80922 | 11.08530 | 37802 ft | 441 kts | 279° |
| 2026-05-06 18:53 | 51.82276 | 10.98860 | 37807 ft | 441 kts | 279° |
| 2026-05-06 18:54 | 51.83621 | 10.89188 | 37806 ft | 441 kts | 279° |
| 2026-05-06 18:54 | 51.84959 | 10.79510 | 37806 ft | 441 kts | 279° |
| 2026-05-06 18:55 | 51.86291 | 10.69812 | 37806 ft | 442 kts | 279° |
| 2026-05-06 18:55 | 51.87605 | 10.60176 | 37810 ft | 442 kts | 279° |
| 2026-05-06 18:56 | 51.88922 | 10.50460 | 37806 ft | 442 kts | 279° |
| 2026-05-06 18:56 | 51.90230 | 10.40737 | 37805 ft | 442 kts | 279° |
| 2026-05-06 18:57 | 51.91530 | 10.31015 | 37813 ft | 442 kts | 279° |
| 2026-05-06 18:57 | 51.92814 | 10.21347 | 37819 ft | 442 kts | 279° |
| 2026-05-06 18:58 | 51.94100 | 10.11599 | 37811 ft | 442 kts | 279° |
| 2026-05-06 18:58 | 51.95377 | 10.01853 | 37824 ft | 442 kts | 279° |
| 2026-05-06 18:59 | 51.96646 | 9.92099 | 37816 ft | 442 kts | 279° |
| 2026-05-06 18:59 | 51.97907 | 9.82344 | 37818 ft | 442 kts | 279° |
| 2026-05-06 19:00 | 51.99151 | 9.72646 | 37830 ft | 442 kts | 279° |
| 2026-05-06 19:00 | 52.00396 | 9.62873 | 37827 ft | 442 kts | 279° |
| 2026-05-06 19:01 | 52.01634 | 9.53087 | 37831 ft | 443 kts | 279° |
| 2026-05-06 19:01 | 52.02865 | 9.43292 | 37829 ft | 443 kts | 278° |
| 2026-05-06 19:02 | 52.04080 | 9.33561 | 37825 ft | 443 kts | 278° |
| 2026-05-06 19:02 | 52.05299 | 9.23758 | 37842 ft | 443 kts | 279° |
| 2026-05-06 19:03 | 52.06830 | 9.14036 | 37838 ft | 444 kts | 283° |
| 2026-05-06 19:03 | 52.08520 | 9.04372 | 37856 ft | 445 kts | 283° |
| 2026-05-06 19:04 | 52.10197 | 8.94688 | 37847 ft | 445 kts | 282° |
| 2026-05-06 19:04 | 52.11827 | 8.85053 | 37872 ft | 445 kts | 282° |
| 2026-05-06 19:05 | 52.13447 | 8.75339 | 37857 ft | 445 kts | 282° |
| 2026-05-06 19:05 | 52.14974 | 8.66109 | 37867 ft | 445 kts | 282° |
| 2026-05-06 19:06 | 52.16578 | 8.56368 | 37858 ft | 445 kts | 282° |
| 2026-05-06 19:06 | 52.17635 | 8.49916 | 37863 ft | 445 kts | 282° |
| 2026-05-06 19:07 | 52.18019 | 8.47566 | 37866 ft | 445 kts | 282° |
| 2026-05-06 19:08 | 52.18814 | 8.42694 | 37877 ft | 445 kts | 282° |
| 2026-05-06 19:09 | 52.19926 | 8.35850 | 37886 ft | 445 kts | 282° |
| 2026-05-06 19:10 | 52.21506 | 8.26088 | 37883 ft | 445 kts | 282° |
| 2026-05-06 19:10 | 52.23078 | 8.16315 | 37884 ft | 445 kts | 282° |
| 2026-05-06 19:11 | 52.24640 | 8.06541 | 37896 ft | 445 kts | 282° |
| 2026-05-06 19:11 | 52.26184 | 7.96831 | 37907 ft | 445 kts | 282° |
| 2026-05-06 19:12 | 52.27730 | 7.87048 | 37915 ft | 445 kts | 282° |
| 2026-05-06 19:12 | 52.29269 | 7.77251 | 37907 ft | 445 kts | 282° |
| 2026-05-06 19:13 | 52.30798 | 7.67457 | 37909 ft | 445 kts | 282° |
| 2026-05-06 19:13 | 52.32309 | 7.57724 | 37906 ft | 445 kts | 282° |
| 2026-05-06 19:14 | 52.33822 | 7.47918 | 37905 ft | 445 kts | 282° |
| 2026-05-06 19:14 | 52.35326 | 7.38113 | 37908 ft | 445 kts | 282° |
| 2026-05-06 19:15 | 52.36822 | 7.28295 | 37904 ft | 445 kts | 282° |
| 2026-05-06 19:15 | 52.38310 | 7.18472 | 37903 ft | 445 kts | 282° |
| 2026-05-06 19:16 | 52.39780 | 7.08713 | 37912 ft | 445 kts | 282° |
| 2026-05-06 19:16 | 52.41251 | 6.98880 | 37907 ft | 445 kts | 281° |
| 2026-05-06 19:17 | 52.42715 | 6.89036 | 37911 ft | 445 kts | 282° |
| 2026-05-06 19:17 | 52.44171 | 6.79183 | 37914 ft | 445 kts | 282° |
| 2026-05-06 19:18 | 52.45620 | 6.69316 | 37914 ft | 445 kts | 281° |
| 2026-05-06 19:18 | 52.47051 | 6.59513 | 37914 ft | 445 kts | 281° |
| 2026-05-06 19:19 | 52.48483 | 6.49637 | 37920 ft | 445 kts | 281° |
| 2026-05-06 19:19 | 52.49907 | 6.39751 | 37922 ft | 445 kts | 281° |
| 2026-05-06 19:20 | 52.51122 | 6.31268 | 37925 ft | 445 kts | 281° |
| 2026-05-06 19:20 | 52.52522 | 6.21432 | 37922 ft | 446 kts | 281° |
| 2026-05-06 19:21 | 52.53925 | 6.11517 | 37933 ft | 446 kts | 281° |
| 2026-05-06 19:21 | 52.55319 | 6.01593 | 37932 ft | 446 kts | 281° |
| 2026-05-06 19:22 | 52.56705 | 5.91662 | 37929 ft | 446 kts | 281° |
| 2026-05-06 19:22 | 52.58082 | 5.81731 | 37927 ft | 445 kts | 281° |
| 2026-05-06 19:23 | 52.59441 | 5.71870 | 37933 ft | 445 kts | 281° |
| 2026-05-06 19:23 | 52.60798 | 5.61948 | 37937 ft | 444 kts | 281° |
| 2026-05-06 19:24 | 52.62146 | 5.52031 | 37933 ft | 444 kts | 281° |
| 2026-05-06 19:24 | 52.63484 | 5.42117 | 37937 ft | 444 kts | 281° |
| 2026-05-06 19:25 | 52.64804 | 5.32273 | 37962 ft | 443 kts | 281° |
| 2026-05-06 19:25 | 52.66123 | 5.22369 | 37948 ft | 442 kts | 281° |
| 2026-05-06 19:26 | 52.67432 | 5.12474 | 37951 ft | 442 kts | 281° |
| 2026-05-06 19:26 | 52.68730 | 5.02592 | 37955 ft | 441 kts | 281° |
| 2026-05-06 19:27 | 52.70016 | 4.92729 | 37959 ft | 440 kts | 281° |
| 2026-05-06 19:27 | 52.71284 | 4.82940 | 37956 ft | 439 kts | 281° |
| 2026-05-06 19:28 | 52.72552 | 4.73086 | 37962 ft | 439 kts | 281° |
| 2026-05-06 19:28 | 52.73810 | 4.63236 | 37961 ft | 439 kts | 280° |
| 2026-05-06 19:29 | 52.75059 | 4.53381 | 37962 ft | 439 kts | 280° |
| 2026-05-06 19:29 | 52.76293 | 4.43583 | 37964 ft | 439 kts | 280° |
| 2026-05-06 19:30 | 52.77528 | 4.33710 | 37971 ft | 439 kts | 280° |
| 2026-05-06 19:30 | 52.78755 | 4.23817 | 37979 ft | 440 kts | 280° |
| 2026-05-06 19:31 | 52.79976 | 4.13914 | 37986 ft | 440 kts | 280° |
| 2026-05-06 19:31 | 52.81786 | 3.99092 | 37996 ft | 441 kts | 280° |
| 2026-05-06 19:32 | 52.82387 | 3.94126 | 37988 ft | 441 kts | 280° |
| 2026-05-06 19:33 | 52.83067 | 3.88492 | 37987 ft | 441 kts | 280° |
| 2026-05-06 19:33 | 52.84253 | 3.78615 | 37994 ft | 440 kts | 279° |
| 2026-05-06 19:34 | 52.85437 | 3.68678 | 37995 ft | 440 kts | 279° |
| 2026-05-06 19:34 | 52.86611 | 3.58745 | 37990 ft | 440 kts | 279° |
| 2026-05-06 19:35 | 52.87776 | 3.48813 | 38004 ft | 439 kts | 279° |
| 2026-05-06 19:35 | 52.88925 | 3.38947 | 37993 ft | 439 kts | 279° |
| 2026-05-06 19:36 | 52.90073 | 3.29016 | 37992 ft | 439 kts | 279° |
| 2026-05-06 19:36 | 52.91213 | 3.19087 | 37997 ft | 439 kts | 279° |
| 2026-05-06 19:37 | 52.92391 | 3.09171 | 37998 ft | 439 kts | 281° |
| 2026-05-06 19:37 | 52.93485 | 3.00967 | 38011 ft | 439 kts | 281° |
| 2026-05-06 19:38 | 52.95027 | 2.89486 | 38015 ft | 439 kts | 281° |
| 2026-05-06 19:38 | 52.96329 | 2.79578 | 38017 ft | 440 kts | 281° |
| 2026-05-06 19:39 | 52.97613 | 2.69652 | 38014 ft | 441 kts | 281° |
| 2026-05-06 19:39 | 52.98891 | 2.59696 | 38021 ft | 441 kts | 281° |
| 2026-05-06 19:40 | 53.00153 | 2.49793 | 38021 ft | 442 kts | 281° |
| 2026-05-06 19:40 | 53.01418 | 2.39805 | 38022 ft | 442 kts | 281° |
| 2026-05-06 19:41 | 53.02675 | 2.29806 | 38023 ft | 442 kts | 281° |
| 2026-05-06 19:41 | 53.03894 | 2.20042 | 38024 ft | 442 kts | 281° |
| 2026-05-06 19:42 | 53.05126 | 2.10115 | 38023 ft | 441 kts | 281° |
| 2026-05-06 19:42 | 53.06356 | 2.00128 | 38030 ft | 441 kts | 281° |
| 2026-05-06 19:43 | 53.07579 | 1.90142 | 38027 ft | 440 kts | 281° |
| 2026-05-06 19:43 | 53.08793 | 1.80158 | 38026 ft | 440 kts | 281° |
| 2026-05-06 19:44 | 53.09989 | 1.70255 | 38030 ft | 440 kts | 281° |
| 2026-05-06 19:44 | 53.11184 | 1.60276 | 38035 ft | 439 kts | 280° |
| 2026-05-06 19:45 | 53.12371 | 1.50297 | 38037 ft | 439 kts | 281° |
| 2026-05-06 19:45 | 53.13548 | 1.40318 | 38036 ft | 439 kts | 281° |
| 2026-05-06 19:46 | 53.14709 | 1.30405 | 38040 ft | 439 kts | 280° |
| 2026-05-06 19:46 | 53.15871 | 1.20412 | 38041 ft | 439 kts | 280° |
| 2026-05-06 19:47 | 53.17022 | 1.10424 | 38043 ft | 439 kts | 280° |
| 2026-05-06 19:47 | 53.18166 | 1.00424 | 38049 ft | 439 kts | 280° |
| 2026-05-06 19:48 | 53.19302 | 0.90423 | 38047 ft | 439 kts | 280° |
| 2026-05-06 19:48 | 53.20422 | 0.80480 | 38043 ft | 439 kts | 280° |
| 2026-05-06 19:49 | 53.21540 | 0.70471 | 38047 ft | 439 kts | 280° |
| 2026-05-06 19:49 | 53.22652 | 0.60454 | 38046 ft | 439 kts | 280° |
| 2026-05-06 19:50 | 53.23755 | 0.50431 | 38046 ft | 439 kts | 280° |
| 2026-05-06 19:50 | 53.24843 | 0.40473 | 38051 ft | 439 kts | 280° |
| 2026-05-06 19:51 | 53.25922 | 0.30422 | 38059 ft | 440 kts | 280° |
| 2026-05-06 19:51 | 53.26992 | 0.20358 | 38057 ft | 440 kts | 280° |
| 2026-05-06 19:52 | 53.28051 | 0.10347 | 38055 ft | 441 kts | 280° |
| 2026-05-06 19:52 | 53.29108 | 0.00262 | 38055 ft | 441 kts | 279° |
| 2026-05-06 19:53 | 53.30155 | -0.09841 | 38052 ft | 441 kts | 280° |
| 2026-05-06 19:53 | 53.31194 | -0.19956 | 38052 ft | 442 kts | 280° |
| 2026-05-06 19:54 | 53.32220 | -0.30012 | 38053 ft | 442 kts | 279° |
| 2026-05-06 19:54 | 53.33246 | -0.40150 | 38052 ft | 442 kts | 279° |
| 2026-05-06 19:55 | 53.34268 | -0.50290 | 38051 ft | 442 kts | 279° |
| 2026-05-06 19:55 | 53.35287 | -0.60434 | 38053 ft | 442 kts | 279° |
| 2026-05-06 19:56 | 53.36284 | -0.70516 | 38052 ft | 442 kts | 279° |
| 2026-05-06 19:56 | 53.37265 | -0.80669 | 38055 ft | 442 kts | 279° |
| 2026-05-06 19:57 | 53.38077 | -0.89114 | 38055 ft | 442 kts | 279° |
| 2026-05-06 19:57 | 53.39065 | -0.99269 | 38056 ft | 442 kts | 279° |
| 2026-05-06 19:58 | 53.40222 | -1.11064 | 38056 ft | 441 kts | 279° |
| 2026-05-06 19:58 | 53.41029 | -1.19575 | 38054 ft | 441 kts | 279° |
| 2026-05-06 19:59 | 53.41809 | -1.28015 | 38051 ft | 441 kts | 279° |
| 2026-05-06 19:59 | 53.42530 | -1.35839 | 38054 ft | 441 kts | 279° |
| 2026-05-06 20:00 | 53.43487 | -1.46002 | 38050 ft | 441 kts | 279° |
| 2026-05-06 20:00 | 53.44423 | -1.56108 | 38052 ft | 441 kts | 279° |
| 2026-05-06 20:01 | 53.45341 | -1.66201 | 38048 ft | 441 kts | 279° |
| 2026-05-06 20:01 | 53.46259 | -1.76372 | 38049 ft | 441 kts | 279° |
| 2026-05-06 20:02 | 53.47161 | -1.86510 | 38038 ft | 441 kts | 279° |
| 2026-05-06 20:02 | 53.48044 | -1.96696 | 38039 ft | 441 kts | 279° |
| 2026-05-06 20:03 | 53.48915 | -2.06823 | 38029 ft | 441 kts | 279° |
| 2026-05-06 20:03 | 53.49786 | -2.17021 | 38029 ft | 441 kts | 279° |
| 2026-05-06 20:04 | 53.50650 | -2.27218 | 38030 ft | 441 kts | 279° |
| 2026-05-06 20:04 | 53.51509 | -2.37418 | 38024 ft | 441 kts | 278° |
| 2026-05-06 20:05 | 53.52361 | -2.47627 | 38021 ft | 441 kts | 278° |
| 2026-05-06 20:05 | 53.53197 | -2.57765 | 38022 ft | 441 kts | 278° |
| 2026-05-06 20:06 | 53.54030 | -2.67974 | 38020 ft | 441 kts | 278° |
| 2026-05-06 20:06 | 53.54854 | -2.78189 | 38014 ft | 441 kts | 278° |
| 2026-05-06 20:07 | 53.55670 | -2.88413 | 38016 ft | 441 kts | 278° |
| 2026-05-06 20:07 | 53.56473 | -2.98582 | 38011 ft | 441 kts | 278° |
| 2026-05-06 20:08 | 53.57272 | -3.08822 | 38011 ft | 442 kts | 278° |
| 2026-05-06 20:08 | 53.58063 | -3.19069 | 38006 ft | 442 kts | 278° |
| 2026-05-06 20:09 | 53.58846 | -3.29328 | 38008 ft | 442 kts | 278° |
| 2026-05-06 20:09 | 53.59620 | -3.39592 | 37830 ft | 445 kts | 278° |
| 2026-05-06 20:10 | 53.60002 | -3.44698 | 37551 ft | 444 kts | 278° |
| 2026-05-06 20:10 | 53.60410 | -3.49840 | 37278 ft | 443 kts | 278° |
| 2026-05-06 20:10 | 53.60726 | -3.54997 | 37014 ft | 443 kts | 276° |
| 2026-05-06 20:10 | 53.60952 | -3.60181 | 36755 ft | 445 kts | 275° |
| 2026-05-06 20:11 | 53.61147 | -3.65382 | 36492 ft | 445 kts | 276° |
| 2026-05-06 20:11 | 53.61341 | -3.70595 | 36231 ft | 446 kts | 276° |
| 2026-05-06 20:11 | 53.61544 | -3.75809 | 35981 ft | 447 kts | 276° |
| 2026-05-06 20:11 | 53.61758 | -3.81039 | 35730 ft | 448 kts | 277° |
| 2026-05-06 20:12 | 53.61975 | -3.86205 | 35485 ft | 449 kts | 277° |
| 2026-05-06 20:12 | 53.62200 | -3.91447 | 35240 ft | 449 kts | 277° |
| 2026-05-06 20:12 | 53.62426 | -3.96698 | 34994 ft | 450 kts | 277° |
| 2026-05-06 20:12 | 53.62602 | -4.00829 | 34805 ft | 451 kts | 277° |
| 2026-05-06 20:13 | 53.62826 | -4.06097 | 34565 ft | 451 kts | 277° |
| 2026-05-06 20:13 | 53.63047 | -4.11377 | 34328 ft | 452 kts | 278° |
| 2026-05-06 20:13 | 53.63260 | -4.16523 | 33624 ft | 452 kts | 278° |
| 2026-05-06 20:13 | 53.63477 | -4.21807 | 32886 ft | 451 kts | 278° |
| 2026-05-06 20:14 | 53.63690 | -4.27074 | 32085 ft | 451 kts | 277° |
| 2026-05-06 20:14 | 53.63899 | -4.32279 | 31274 ft | 451 kts | 277° |
| 2026-05-06 20:14 | 53.64108 | -4.37559 | 30421 ft | 452 kts | 276° |
| 2026-05-06 20:14 | 53.64315 | -4.42842 | 29610 ft | 450 kts | 276° |
| 2026-05-06 20:15 | 53.64516 | -4.48069 | 28954 ft | 443 kts | 276° |
| 2026-05-06 20:15 | 53.64711 | -4.53211 | 28338 ft | 437 kts | 276° |
| 2026-05-06 20:15 | 53.64902 | -4.58285 | 27713 ft | 430 kts | 275° |
| 2026-05-06 20:15 | 53.65088 | -4.63281 | 27092 ft | 425 kts | 275° |
| 2026-05-06 20:16 | 53.65271 | -4.68222 | 26490 ft | 420 kts | 275° |
| 2026-05-06 20:16 | 53.65447 | -4.73040 | 25893 ft | 415 kts | 275° |
| 2026-05-06 20:16 | 53.65622 | -4.77874 | 25292 ft | 411 kts | 275° |
| 2026-05-06 20:16 | 53.65793 | -4.82657 | 24704 ft | 407 kts | 275° |
| 2026-05-06 20:17 | 53.65961 | -4.87400 | 24123 ft | 403 kts | 275° |
| 2026-05-06 20:17 | 53.66126 | -4.92095 | 23543 ft | 400 kts | 274° |
| 2026-05-06 20:17 | 53.66287 | -4.96754 | 22867 ft | 396 kts | 274° |
| 2026-05-06 20:17 | 53.66444 | -5.01357 | 22278 ft | 391 kts | 274° |
| 2026-05-06 20:18 | 53.66598 | -5.05901 | 21702 ft | 386 kts | 274° |
| 2026-05-06 20:18 | 53.66746 | -5.10322 | 21148 ft | 381 kts | 274° |
| 2026-05-06 20:18 | 53.66892 | -5.14756 | 20579 ft | 377 kts | 274° |
| 2026-05-06 20:18 | 53.67036 | -5.19145 | 20024 ft | 373 kts | 273° |
| 2026-05-06 20:19 | 53.67176 | -5.23491 | 19466 ft | 369 kts | 273° |
| 2026-05-06 20:19 | 53.67314 | -5.27793 | 18927 ft | 366 kts | 273° |
| 2026-05-06 20:19 | 53.67449 | -5.32053 | 18390 ft | 362 kts | 273° |
| 2026-05-06 20:19 | 53.67581 | -5.36274 | 17791 ft | 359 kts | 273° |
| 2026-05-06 20:20 | 53.67711 | -5.40452 | 17252 ft | 354 kts | 272° |
| 2026-05-06 20:20 | 53.67836 | -5.44520 | 16729 ft | 350 kts | 272° |
| 2026-05-06 20:20 | 53.67936 | -5.48592 | 16323 ft | 344 kts | 269° |
| 2026-05-06 20:20 | 53.67719 | -5.52582 | 16074 ft | 345 kts | 259° |
| 2026-05-06 20:21 | 53.67174 | -5.56583 | 15827 ft | 354 kts | 257° |
| 2026-05-06 20:21 | 53.66617 | -5.60656 | 15582 ft | 359 kts | 257° |
| 2026-05-06 20:21 | 53.66072 | -5.64753 | 15322 ft | 357 kts | 257° |
| 2026-05-06 20:21 | 53.65536 | -5.68820 | 15069 ft | 354 kts | 257° |
| 2026-05-06 20:22 | 53.65004 | -5.72860 | 14821 ft | 352 kts | 258° |
| 2026-05-06 20:22 | 53.64644 | -5.76936 | 14568 ft | 351 kts | 266° |
| 2026-05-06 20:22 | 53.64711 | -5.80983 | 14331 ft | 351 kts | 274° |
| 2026-05-06 20:22 | 53.64946 | -5.85067 | 14087 ft | 350 kts | 275° |
| 2026-05-06 20:23 | 53.65188 | -5.89143 | 13846 ft | 349 kts | 275° |
| 2026-05-06 20:23 | 53.65427 | -5.93212 | 13582 ft | 349 kts | 275° |
| 2026-05-06 20:23 | 53.65660 | -5.97279 | 13311 ft | 348 kts | 274° |
| 2026-05-06 20:23 | 53.65886 | -6.01337 | 13041 ft | 348 kts | 274° |
| 2026-05-06 20:24 | 53.66109 | -6.05398 | 12761 ft | 347 kts | 274° |
| 2026-05-06 20:24 | 53.66325 | -6.09392 | 12511 ft | 346 kts | 274° |
| 2026-05-06 20:24 | 53.66541 | -6.13434 | 12251 ft | 346 kts | 274° |
| 2026-05-06 20:24 | 53.66754 | -6.17462 | 11984 ft | 345 kts | 274° |
| 2026-05-06 20:25 | 53.66966 | -6.21481 | 11565 ft | 343 kts | 274° |
| 2026-05-06 20:25 | 53.67173 | -6.25459 | 11057 ft | 338 kts | 274° |
| 2026-05-06 20:25 | 53.67377 | -6.29382 | 10713 ft | 330 kts | 274° |
| 2026-05-06 20:25 | 53.67571 | -6.33144 | 10566 ft | 316 kts | 274° |
| 2026-05-06 20:26 | 53.67757 | -6.36762 | 10427 ft | 303 kts | 274° |
| 2026-05-06 20:26 | 53.67934 | -6.40240 | 10296 ft | 292 kts | 274° |
| 2026-05-06 20:26 | 53.68102 | -6.43548 | 10175 ft | 282 kts | 274° |
| 2026-05-06 20:26 | 53.68265 | -6.46782 | 10056 ft | 272 kts | 274° |
| 2026-05-06 20:27 | 53.68422 | -6.49913 | 9913 ft | 264 kts | 274° |
| 2026-05-06 20:27 | 53.68575 | -6.52996 | 9618 ft | 262 kts | 274° |
| 2026-05-06 20:27 | 53.68726 | -6.56039 | 9351 ft | 259 kts | 274° |
| 2026-05-06 20:27 | 53.68875 | -6.59059 | 9048 ft | 258 kts | 274° |
| 2026-05-06 20:28 | 53.69022 | -6.62059 | 8759 ft | 256 kts | 274° |
| 2026-05-06 20:28 | 53.69168 | -6.65036 | 8475 ft | 254 kts | 273° |
| 2026-05-06 20:28 | 53.69312 | -6.67985 | 8265 ft | 249 kts | 273° |
| 2026-05-06 20:28 | 53.69448 | -6.70808 | 8159 ft | 241 kts | 273° |
| 2026-05-06 20:29 | 53.69583 | -6.73632 | 7872 ft | 242 kts | 273° |
| 2026-05-06 20:29 | 53.69440 | -6.76406 | 7486 ft | 237 kts | 248° |
| 2026-05-06 20:29 | 53.68693 | -6.78835 | 7161 ft | 232 kts | 238° |
| 2026-05-06 20:29 | 53.67837 | -6.81120 | 6805 ft | 229 kts | 237° |
| 2026-05-06 20:30 | 53.66984 | -6.83371 | 6460 ft | 226 kts | 236° |
| 2026-05-06 20:30 | 53.64346 | -6.85722 | 5710 ft | 225 kts | 179° |
| 2026-05-06 20:30 | 53.62841 | -6.85065 | 5352 ft | 226 kts | 155° |
| 2026-05-06 20:31 | 53.61489 | -6.83758 | 5046 ft | 229 kts | 151° |
| 2026-05-06 20:31 | 53.60118 | -6.82370 | 4742 ft | 230 kts | 150° |
| 2026-05-06 20:31 | 53.58741 | -6.80973 | 4430 ft | 232 kts | 150° |
| 2026-05-06 20:31 | 53.57354 | -6.79572 | 4115 ft | 233 kts | 150° |
| 2026-05-06 20:32 | 53.55962 | -6.78170 | 3845 ft | 233 kts | 150° |
| 2026-05-06 20:32 | 53.54574 | -6.76775 | 3585 ft | 232 kts | 150° |
| 2026-05-06 20:32 | 53.53195 | -6.75394 | 3347 ft | 230 kts | 150° |
| 2026-05-06 20:32 | 53.51828 | -6.74027 | 3119 ft | 228 kts | 150° |
| 2026-05-06 20:33 | 53.50486 | -6.72689 | 3011 ft | 220 kts | 150° |
| 2026-05-06 20:33 | 53.49204 | -6.71410 | 2989 ft | 209 kts | 151° |
| 2026-05-06 20:33 | 53.47980 | -6.70192 | 2994 ft | 207 kts | 151° |
| 2026-05-06 20:33 | 53.46753 | -6.68947 | 2993 ft | 206 kts | 146° |
| 2026-05-06 20:34 | 53.45905 | -6.67047 | 2987 ft | 209 kts | 105° |
| 2026-05-06 20:34 | 53.45800 | -6.64613 | 3011 ft | 211 kts | 94° |
| 2026-05-06 20:34 | 53.45683 | -6.62161 | 3001 ft | 211 kts | 97° |
| 2026-05-06 20:34 | 53.45533 | -6.59706 | 3000 ft | 212 kts | 97° |
| 2026-05-06 20:35 | 53.45386 | -6.57258 | 3012 ft | 209 kts | 97° |
| 2026-05-06 20:35 | 53.45248 | -6.54888 | 2981 ft | 197 kts | 97° |
| 2026-05-06 20:35 | 53.45122 | -6.52721 | 2976 ft | 181 kts | 97° |
| 2026-05-06 20:35 | 53.44999 | -6.50612 | 2886 ft | 183 kts | 97° |
| 2026-05-06 20:36 | 53.44876 | -6.48485 | 2647 ft | 181 kts | 98° |
| 2026-05-06 20:36 | 53.44759 | -6.46441 | 2453 ft | 171 kts | 98° |
| 2026-05-06 20:36 | 53.44645 | -6.44461 | 2181 ft | 169 kts | 98° |
| 2026-05-06 20:36 | 53.44532 | -6.42497 | 1946 ft | 169 kts | 98° |
| 2026-05-06 20:37 | 53.44421 | -6.40542 | 1718 ft | 168 kts | 98° |
| 2026-05-06 20:37 | 53.44314 | -6.38642 | 1481 ft | 158 kts | 98° |
| 2026-05-06 20:37 | 53.44213 | -6.36864 | 1275 ft | 149 kts | 98° |
| 2026-05-06 20:37 | 53.44118 | -6.35182 | 1077 ft | 145 kts | 99° |
| 2026-05-06 20:38 | 53.44023 | -6.33508 | 876 ft | 144 kts | 98° |
| 2026-05-06 20:38 | 53.43930 | -6.31824 | 631 ft | 145 kts | 97° |
| 2026-05-06 20:38 | 53.43834 | -6.30153 | 438 ft | 145 kts | 97° |
| 2026-05-06 20:38 | 53.43741 | -6.28479 | 305 ft | 145 kts | 98° |
| 2026-05-06 20:39 | 53.43648 | -6.26853 | 215 ft | 109 kts | 95° |
| 2026-05-06 20:39 | 53.43604 | -6.26100 | 209 ft | 55 kts | 97° |
| 2026-05-06 20:39 | 53.43572 | -6.25496 | 213 ft | 51 kts | 97° |
| 2026-05-06 20:39 | 53.43456 | -6.25022 | 210 ft | 18 kts | 120° |
| 2026-05-06 20:40 | 53.43438 | -6.24970 | 215 ft | 0 kts | 120° |
| 2026-05-06 20:40 | 53.43418 | -6.24961 | 212 ft | 6 kts | 197° |
| 2026-05-06 20:40 | 53.43391 | -6.25007 | 217 ft | 7 kts | 237° |
| 2026-05-06 20:40 | 53.43382 | -6.25124 | 213 ft | 9 kts | 273° |
| 2026-05-06 20:41 | 53.43386 | -6.25256 | 218 ft | 14 kts | 272° |
| 2026-05-06 20:41 | 53.43394 | -6.25432 | 210 ft | 15 kts | 282° |
| 2026-05-06 20:41 | 53.43403 | -6.25521 | 213 ft | 6 kts | 279° |
| 2026-05-06 20:41 | 53.43401 | -6.25621 | 219 ft | 13 kts | 239° |
| 2026-05-06 20:42 | 53.43320 | -6.25623 | 213 ft | 15 kts | 161° |
| 2026-05-06 20:42 | 53.43218 | -6.25551 | 210 ft | 16 kts | 156° |
| 2026-05-06 20:42 | 53.43096 | -6.25463 | 213 ft | 15 kts | 157° |
| 2026-05-06 20:42 | 53.42995 | -6.25391 | 215 ft | 16 kts | 157° |
| 2026-05-06 20:43 | 53.42911 | -6.25327 | 216 ft | 6 kts | 155° |
| 2026-05-06 20:43 | 53.42874 | -6.25299 | 213 ft | 6 kts | 157° |
| 2026-05-06 20:43 | 53.42836 | -6.25273 | 216 ft | 1 kts | 158° |
| 2026-05-06 20:43 | 53.42830 | -6.25269 | 210 ft | 1 kts | 158° |
| 2026-05-06 20:44 | 53.42826 | -6.25265 | 215 ft | 1 kts | 156° |
| 2026-05-06 20:44 | 53.42820 | -6.25261 | 213 ft | 1 kts | 156° |
| 2026-05-06 20:44 | 53.42797 | -6.25193 | 217 ft | 17 kts | 102° |
| 2026-05-06 20:44 | 53.42724 | -6.24988 | 218 ft | 22 kts | 148° |
| 2026-05-06 20:45 | 53.42673 | -6.24933 | 213 ft | 12 kts | 139° |
| 2026-05-06 20:45 | 53.42689 | -6.24803 | 212 ft | 14 kts | 57° |
| 2026-05-06 20:45 | 53.42741 | -6.24663 | 215 ft | 11 kts | 40° |
| 2026-05-06 20:45 | 53.42763 | -6.24663 | 218 ft | 1 kts | 330° |
| 2026-05-06 20:46 | 53.42775 | -6.24675 | 210 ft | 3 kts | 330° |
| 2026-05-06 20:46 | 53.42788 | -6.24688 | 212 ft | 0 kts | 328° |